sensor_id;sensor_type;location;lat;lon;timestamp;temperature;humidity
19292;DHT22;9779;51.756;7.450;2023-05-16T00:00:03;12.10;93.50
19292;DHT22;9779;51.756;7.450;2023-05-16T00:02:34;11.90;99.90
19292;DHT22;9779;51.756;7.450;2023-05-16T00:05:01;11.90;99.90
19292;DHT22;9779;51.756;7.450;2023-05-16T00:07:29;11.90;99.90
19292;DHT22;9779;51.756;7.450;2023-05-16T00:09:54;11.80;99.90
19292;DHT22;9779;51.756;7.450;2023-05-16T00:12:20;11.80;99.90
19292;DHT22;9779;51.756;7.450;2023-05-16T00:14:47;11.80;99.90
19292;DHT22;9779;51.756;7.450;2023-05-16T00:17:13;11.90;99.90
19292;DHT22;9779;51.756;7.450;2023-05-16T00:19:39;11.80;99.90
19292;DHT22;9779;51.756;7.450;2023-05-16T00:22:04;11.60;99.90
19292;DHT22;9779;51.756;7.450;2023-05-16T00:24:31;11.70;99.90
19292;DHT22;9779;51.756;7.450;2023-05-16T00:26:56;11.60;99.90
19292;DHT22;9779;51.756;7.450;2023-05-16T00:29:22;11.60;99.90
19292;DHT22;9779;51.756;7.450;2023-05-16T00:31:49;11.60;99.90
19292;DHT22;9779;51.756;7.450;2023-05-16T00:34:14;11.60;99.90
19292;DHT22;9779;51.756;7.450;2023-05-16T00:36:40;11.70;99.90
19292;DHT22;9779;51.756;7.450;2023-05-16T00:39:06;11.60;99.90
19292;DHT22;9779;51.756;7.450;2023-05-16T00:41:33;11.60;99.90
19292;DHT22;9779;51.756;7.450;2023-05-16T00:43:58;11.60;99.90
19292;DHT22;9779;51.756;7.450;2023-05-16T00:46:24;11.60;99.90
19292;DHT22;9779;51.756;7.450;2023-05-16T00:48:50;11.50;99.90
19292;DHT22;9779;51.756;7.450;2023-05-16T00:51:16;11.50;99.90
19292;DHT22;9779;51.756;7.450;2023-05-16T00:53:42;11.50;99.90
19292;DHT22;9779;51.756;7.450;2023-05-16T00:56:08;11.30;99.90
19292;DHT22;9779;51.756;7.450;2023-05-16T00:58:34;11.30;99.90
19292;DHT22;9779;51.756;7.450;2023-05-16T01:01:01;11.20;99.90
19292;DHT22;9779;51.756;7.450;2023-05-16T01:03:28;11.00;99.90
19292;DHT22;9779;51.756;7.450;2023-05-16T01:05:54;10.90;99.90
19292;DHT22;9779;51.756;7.450;2023-05-16T01:08:20;10.90;99.90
19292;DHT22;9779;51.756;7.450;2023-05-16T01:10:52;10.90;99.90
19292;DHT22;9779;51.756;7.450;2023-05-16T01:13:47;10.80;99.90
19292;DHT22;9779;51.756;7.450;2023-05-16T01:16:49;10.70;99.90
19292;DHT22;9779;51.756;7.450;2023-05-16T01:22:02;10.70;99.90
19292;DHT22;9779;51.756;7.450;2023-05-16T01:24:33;10.50;99.90
19292;DHT22;9779;51.756;7.450;2023-05-16T01:26:59;10.40;99.90
19292;DHT22;9779;51.756;7.450;2023-05-16T01:29:25;10.30;99.90
19292;DHT22;9779;51.756;7.450;2023-05-16T01:31:51;10.30;99.90
19292;DHT22;9779;51.756;7.450;2023-05-16T01:34:16;10.20;99.90
19292;DHT22;9779;51.756;7.450;2023-05-16T01:37:14;10.00;99.90
19292;DHT22;9779;51.756;7.450;2023-05-16T01:39:46;10.10;99.90
19292;DHT22;9779;51.756;7.450;2023-05-16T01:42:18;10.00;99.90
19292;DHT22;9779;51.756;7.450;2023-05-16T01:47:30;9.80;99.90
19292;DHT22;9779;51.756;7.450;2023-05-16T01:50:07;9.70;99.90
19292;DHT22;9779;51.756;7.450;2023-05-16T01:52:47;9.70;99.90
19292;DHT22;9779;51.756;7.450;2023-05-16T01:55:23;9.70;99.90
19292;DHT22;9779;51.756;7.450;2023-05-16T01:57:51;9.80;99.90
19292;DHT22;9779;51.756;7.450;2023-05-16T02:00:17;9.80;99.90
19292;DHT22;9779;51.756;7.450;2023-05-16T02:02:43;9.80;99.90
19292;DHT22;9779;51.756;7.450;2023-05-16T02:05:08;9.90;99.90
19292;DHT22;9779;51.756;7.450;2023-05-16T02:07:34;9.80;99.90
19292;DHT22;9779;51.756;7.450;2023-05-16T02:10:00;9.90;99.90
19292;DHT22;9779;51.756;7.450;2023-05-16T02:12:25;9.90;99.90
19292;DHT22;9779;51.756;7.450;2023-05-16T02:14:51;10.00;99.90
19292;DHT22;9779;51.756;7.450;2023-05-16T02:17:16;10.10;99.90
19292;DHT22;9779;51.756;7.450;2023-05-16T02:19:42;10.10;99.90
19292;DHT22;9779;51.756;7.450;2023-05-16T02:22:07;10.10;99.90
19292;DHT22;9779;51.756;7.450;2023-05-16T02:24:33;10.10;99.90
19292;DHT22;9779;51.756;7.450;2023-05-16T02:26:58;10.10;99.90
19292;DHT22;9779;51.756;7.450;2023-05-16T02:29:24;10.00;99.90
19292;DHT22;9779;51.756;7.450;2023-05-16T02:31:49;10.00;99.90
19292;DHT22;9779;51.756;7.450;2023-05-16T02:34:15;10.00;99.90
19292;DHT22;9779;51.756;7.450;2023-05-16T02:36:41;9.90;99.90
19292;DHT22;9779;51.756;7.450;2023-05-16T02:39:06;9.90;99.90
19292;DHT22;9779;51.756;7.450;2023-05-16T02:41:34;9.90;99.90
19292;DHT22;9779;51.756;7.450;2023-05-16T02:44:00;9.90;99.90
19292;DHT22;9779;51.756;7.450;2023-05-16T02:46:27;9.80;99.90
19292;DHT22;9779;51.756;7.450;2023-05-16T02:48:55;9.70;99.90
19292;DHT22;9779;51.756;7.450;2023-05-16T02:51:22;9.70;99.90
19292;DHT22;9779;51.756;7.450;2023-05-16T02:53:48;9.70;99.90
19292;DHT22;9779;51.756;7.450;2023-05-16T02:56:14;9.80;99.90
19292;DHT22;9779;51.756;7.450;2023-05-16T02:58:40;9.80;99.90
19292;DHT22;9779;51.756;7.450;2023-05-16T03:01:06;9.70;99.90
19292;DHT22;9779;51.756;7.450;2023-05-16T03:03:32;9.70;99.90
19292;DHT22;9779;51.756;7.450;2023-05-16T03:05:59;9.70;99.90
19292;DHT22;9779;51.756;7.450;2023-05-16T03:08:25;9.70;99.90
19292;DHT22;9779;51.756;7.450;2023-05-16T03:10:51;9.60;80.30
19292;DHT22;9779;51.756;7.450;2023-05-16T03:13:16;9.50;61.20
19292;DHT22;9779;51.756;7.450;2023-05-16T03:15:42;9.50;74.20
19292;DHT22;9779;51.756;7.450;2023-05-16T03:18:08;9.50;73.50
19292;DHT22;9779;51.756;7.450;2023-05-16T03:20:33;9.50;92.20
19292;DHT22;9779;51.756;7.450;2023-05-16T03:22:59;9.50;90.50
19292;DHT22;9779;51.756;7.450;2023-05-16T03:25:24;9.50;92.80
19292;DHT22;9779;51.756;7.450;2023-05-16T03:27:50;9.50;80.70
19292;DHT22;9779;51.756;7.450;2023-05-16T03:30:16;9.50;49.90
19292;DHT22;9779;51.756;7.450;2023-05-16T03:32:44;9.50;82.00
19292;DHT22;9779;51.756;7.450;2023-05-16T03:35:10;9.40;34.40
19292;DHT22;9779;51.756;7.450;2023-05-16T03:37:36;9.40;18.50
19292;DHT22;9779;51.756;7.450;2023-05-16T03:40:02;9.30;13.70
19292;DHT22;9779;51.756;7.450;2023-05-16T03:42:30;9.40;38.10
19292;DHT22;9779;51.756;7.450;2023-05-16T03:44:56;9.30;1.00
19292;DHT22;9779;51.756;7.450;2023-05-16T03:47:22;9.30;1.00
19292;DHT22;9779;51.756;7.450;2023-05-16T03:49:47;9.20;1.00
19292;DHT22;9779;51.756;7.450;2023-05-16T03:52:13;9.10;1.00
19292;DHT22;9779;51.756;7.450;2023-05-16T03:54:38;9.10;1.00
19292;DHT22;9779;51.756;7.450;2023-05-16T03:57:04;9.10;2.50
19292;DHT22;9779;51.756;7.450;2023-05-16T03:59:30;9.10;10.90
19292;DHT22;9779;51.756;7.450;2023-05-16T04:01:56;9.00;15.80
19292;DHT22;9779;51.756;7.450;2023-05-16T04:04:21;9.00;23.10
19292;DHT22;9779;51.756;7.450;2023-05-16T04:06:47;9.00;24.40
19292;DHT22;9779;51.756;7.450;2023-05-16T04:09:12;9.10;10.80
19292;DHT22;9779;51.756;7.450;2023-05-16T04:11:38;9.00;14.90
19292;DHT22;9779;51.756;7.450;2023-05-16T04:14:04;8.90;18.20
19292;DHT22;9779;51.756;7.450;2023-05-16T04:16:29;8.90;29.10
19292;DHT22;9779;51.756;7.450;2023-05-16T04:18:55;9.00;24.80
19292;DHT22;9779;51.756;7.450;2023-05-16T04:21:21;8.90;15.60
19292;DHT22;9779;51.756;7.450;2023-05-16T04:23:46;8.90;8.40
19292;DHT22;9779;51.756;7.450;2023-05-16T04:26:12;8.90;26.10
19292;DHT22;9779;51.756;7.450;2023-05-16T04:28:39;8.90;30.00
19292;DHT22;9779;51.756;7.450;2023-05-16T04:31:05;8.90;27.10
19292;DHT22;9779;51.756;7.450;2023-05-16T04:33:32;8.90;23.70
19292;DHT22;9779;51.756;7.450;2023-05-16T04:35:58;8.90;30.40
19292;DHT22;9779;51.756;7.450;2023-05-16T04:38:25;8.80;40.30
19292;DHT22;9779;51.756;7.450;2023-05-16T04:40:51;8.80;71.00
19292;DHT22;9779;51.756;7.450;2023-05-16T04:43:17;8.80;77.60
19292;DHT22;9779;51.756;7.450;2023-05-16T04:45:43;8.80;76.50
19292;DHT22;9779;51.756;7.450;2023-05-16T04:48:09;8.90;69.50
19292;DHT22;9779;51.756;7.450;2023-05-16T04:50:34;8.90;74.60
19292;DHT22;9779;51.756;7.450;2023-05-16T04:53:00;9.00;61.40
19292;DHT22;9779;51.756;7.450;2023-05-16T04:55:26;9.00;47.30
19292;DHT22;9779;51.756;7.450;2023-05-16T04:57:51;8.90;28.60
19292;DHT22;9779;51.756;7.450;2023-05-16T05:00:17;8.80;26.50
19292;DHT22;9779;51.756;7.450;2023-05-16T05:02:42;8.80;42.00
19292;DHT22;9779;51.756;7.450;2023-05-16T05:05:09;8.80;20.80
19292;DHT22;9779;51.756;7.450;2023-05-16T05:07:34;8.80;22.80
19292;DHT22;9779;51.756;7.450;2023-05-16T05:10:00;8.70;22.20
19292;DHT22;9779;51.756;7.450;2023-05-16T05:12:25;8.70;27.80
19292;DHT22;9779;51.756;7.450;2023-05-16T05:14:55;8.70;5.20
19292;DHT22;9779;51.756;7.450;2023-05-16T05:17:21;8.70;11.10
19292;DHT22;9779;51.756;7.450;2023-05-16T05:19:47;8.70;1.00
19292;DHT22;9779;51.756;7.450;2023-05-16T05:22:13;8.80;22.30
19292;DHT22;9779;51.756;7.450;2023-05-16T05:24:39;8.80;3.10
19292;DHT22;9779;51.756;7.450;2023-05-16T05:27:04;8.80;14.00
19292;DHT22;9779;51.756;7.450;2023-05-16T05:29:30;8.80;1.00
19292;DHT22;9779;51.756;7.450;2023-05-16T05:31:56;8.80;1.00
19292;DHT22;9779;51.756;7.450;2023-05-16T05:34:21;8.80;1.00
19292;DHT22;9779;51.756;7.450;2023-05-16T05:36:47;8.90;1.50
19292;DHT22;9779;51.756;7.450;2023-05-16T05:39:12;8.80;1.00
19292;DHT22;9779;51.756;7.450;2023-05-16T05:41:38;8.80;1.00
19292;DHT22;9779;51.756;7.450;2023-05-16T05:44:04;8.90;1.00
19292;DHT22;9779;51.756;7.450;2023-05-16T05:46:30;9.00;1.00
19292;DHT22;9779;51.756;7.450;2023-05-16T05:48:56;9.00;1.00
19292;DHT22;9779;51.756;7.450;2023-05-16T05:51:23;8.90;1.00
19292;DHT22;9779;51.756;7.450;2023-05-16T05:53:49;9.00;1.00
19292;DHT22;9779;51.756;7.450;2023-05-16T05:56:14;9.00;1.00
19292;DHT22;9779;51.756;7.450;2023-05-16T05:58:40;9.00;1.00
19292;DHT22;9779;51.756;7.450;2023-05-16T06:01:10;9.00;1.00
19292;DHT22;9779;51.756;7.450;2023-05-16T06:03:36;9.00;1.00
19292;DHT22;9779;51.756;7.450;2023-05-16T06:06:03;9.00;1.00
19292;DHT22;9779;51.756;7.450;2023-05-16T06:08:29;9.00;1.00
19292;DHT22;9779;51.756;7.450;2023-05-16T06:10:54;9.00;1.00
19292;DHT22;9779;51.756;7.450;2023-05-16T06:13:20;9.10;1.00
19292;DHT22;9779;51.756;7.450;2023-05-16T06:15:50;9.00;1.00
19292;DHT22;9779;51.756;7.450;2023-05-16T06:18:16;9.10;1.00
19292;DHT22;9779;51.756;7.450;2023-05-16T06:20:41;9.10;1.00
19292;DHT22;9779;51.756;7.450;2023-05-16T06:23:07;9.00;1.00
19292;DHT22;9779;51.756;7.450;2023-05-16T06:25:32;9.10;1.00
19292;DHT22;9779;51.756;7.450;2023-05-16T06:27:58;9.10;1.00
19292;DHT22;9779;51.756;7.450;2023-05-16T06:30:23;9.10;1.00
19292;DHT22;9779;51.756;7.450;2023-05-16T06:32:49;9.20;1.00
19292;DHT22;9779;51.756;7.450;2023-05-16T06:35:14;9.20;1.00
19292;DHT22;9779;51.756;7.450;2023-05-16T06:37:40;9.20;1.00
19292;DHT22;9779;51.756;7.450;2023-05-16T06:40:06;9.20;1.00
19292;DHT22;9779;51.756;7.450;2023-05-16T06:42:32;9.30;1.00
19292;DHT22;9779;51.756;7.450;2023-05-16T06:44:57;9.30;1.00
19292;DHT22;9779;51.756;7.450;2023-05-16T06:47:23;9.30;1.00
19292;DHT22;9779;51.756;7.450;2023-05-16T06:49:49;9.30;1.00
19292;DHT22;9779;51.756;7.450;2023-05-16T06:52:15;9.40;1.00
19292;DHT22;9779;51.756;7.450;2023-05-16T06:54:41;9.40;1.00
19292;DHT22;9779;51.756;7.450;2023-05-16T06:57:06;9.50;1.00
19292;DHT22;9779;51.756;7.450;2023-05-16T06:59:33;9.50;1.00
19292;DHT22;9779;51.756;7.450;2023-05-16T07:01:59;9.50;1.00
19292;DHT22;9779;51.756;7.450;2023-05-16T07:04:25;9.50;1.00
19292;DHT22;9779;51.756;7.450;2023-05-16T07:06:51;9.60;1.00
19292;DHT22;9779;51.756;7.450;2023-05-16T07:09:17;9.60;1.00
19292;DHT22;9779;51.756;7.450;2023-05-16T07:11:43;9.60;1.00
19292;DHT22;9779;51.756;7.450;2023-05-16T07:14:08;9.60;99.90
19292;DHT22;9779;51.756;7.450;2023-05-16T07:16:34;9.60;99.90
19292;DHT22;9779;51.756;7.450;2023-05-16T07:19:00;9.70;99.90
19292;DHT22;9779;51.756;7.450;2023-05-16T07:21:25;9.70;99.90
19292;DHT22;9779;51.756;7.450;2023-05-16T07:23:51;9.80;99.90
19292;DHT22;9779;51.756;7.450;2023-05-16T07:26:17;10.00;1.00
19292;DHT22;9779;51.756;7.450;2023-05-16T07:28:42;10.10;1.00
19292;DHT22;9779;51.756;7.450;2023-05-16T07:31:08;10.30;1.00
19292;DHT22;9779;51.756;7.450;2023-05-16T07:33:34;10.40;99.90
19292;DHT22;9779;51.756;7.450;2023-05-16T07:36:00;10.60;54.50
19292;DHT22;9779;51.756;7.450;2023-05-16T07:38:25;10.70;99.90
19292;DHT22;9779;51.756;7.450;2023-05-16T07:40:51;10.70;99.90
19292;DHT22;9779;51.756;7.450;2023-05-16T07:43:17;10.70;1.00
19292;DHT22;9779;51.756;7.450;2023-05-16T07:45:42;10.70;99.90
19292;DHT22;9779;51.756;7.450;2023-05-16T07:48:08;10.60;1.00
19292;DHT22;9779;51.756;7.450;2023-05-16T07:50:34;10.60;1.00
19292;DHT22;9779;51.756;7.450;2023-05-16T07:52:59;10.50;1.00
19292;DHT22;9779;51.756;7.450;2023-05-16T07:55:25;10.60;1.00
19292;DHT22;9779;51.756;7.450;2023-05-16T07:57:51;10.70;99.90
19292;DHT22;9779;51.756;7.450;2023-05-16T08:00:17;10.80;1.00
19292;DHT22;9779;51.756;7.450;2023-05-16T08:02:43;10.80;99.90
19292;DHT22;9779;51.756;7.450;2023-05-16T08:05:08;11.00;99.90
19292;DHT22;9779;51.756;7.450;2023-05-16T08:07:34;11.10;1.00
19292;DHT22;9779;51.756;7.450;2023-05-16T08:09:59;11.20;99.90
19292;DHT22;9779;51.756;7.450;2023-05-16T08:12:25;11.10;99.90
19292;DHT22;9779;51.756;7.450;2023-05-16T08:14:51;11.20;1.00
19292;DHT22;9779;51.756;7.450;2023-05-16T08:17:17;11.10;99.90
19292;DHT22;9779;51.756;7.450;2023-05-16T08:19:43;10.90;99.90
19292;DHT22;9779;51.756;7.450;2023-05-16T08:22:08;10.80;41.40
19292;DHT22;9779;51.756;7.450;2023-05-16T08:24:34;10.80;1.00
19292;DHT22;9779;51.756;7.450;2023-05-16T08:27:00;10.70;1.00
19292;DHT22;9779;51.756;7.450;2023-05-16T08:29:25;10.70;5.40
19292;DHT22;9779;51.756;7.450;2023-05-16T08:31:51;10.90;99.90
19292;DHT22;9779;51.756;7.450;2023-05-16T08:34:17;11.10;1.00
19292;DHT22;9779;51.756;7.450;2023-05-16T08:36:42;11.30;90.40
19292;DHT22;9779;51.756;7.450;2023-05-16T08:39:08;11.40;99.90
19292;DHT22;9779;51.756;7.450;2023-05-16T08:41:36;11.60;1.00
19292;DHT22;9779;51.756;7.450;2023-05-16T08:44:02;11.70;1.00
19292;DHT22;9779;51.756;7.450;2023-05-16T08:46:28;11.70;1.00
19292;DHT22;9779;51.756;7.450;2023-05-16T08:48:58;11.90;1.00
19292;DHT22;9779;51.756;7.450;2023-05-16T08:51:24;11.90;99.90
19292;DHT22;9779;51.756;7.450;2023-05-16T08:53:59;12.00;1.00
19292;DHT22;9779;51.756;7.450;2023-05-16T08:56:27;12.10;1.00
19292;DHT22;9779;51.756;7.450;2023-05-16T08:58:54;12.20;31.20
19292;DHT22;9779;51.756;7.450;2023-05-16T09:01:21;12.30;99.90
19292;DHT22;9779;51.756;7.450;2023-05-16T09:03:48;12.40;1.00
19292;DHT22;9779;51.756;7.450;2023-05-16T09:06:14;12.50;1.00
19292;DHT22;9779;51.756;7.450;2023-05-16T09:08:40;12.30;28.70
19292;DHT22;9779;51.756;7.450;2023-05-16T09:11:06;12.40;1.00
19292;DHT22;9779;51.756;7.450;2023-05-16T09:13:32;12.50;1.00
19292;DHT22;9779;51.756;7.450;2023-05-16T09:16:15;12.60;1.00
19292;DHT22;9779;51.756;7.450;2023-05-16T09:18:52;12.70;99.90
19292;DHT22;9779;51.756;7.450;2023-05-16T09:21:19;12.70;1.00
19292;DHT22;9779;51.756;7.450;2023-05-16T09:23:48;12.80;99.90
19292;DHT22;9779;51.756;7.450;2023-05-16T09:26:14;13.00;99.90
19292;DHT22;9779;51.756;7.450;2023-05-16T09:28:40;13.10;52.20
19292;DHT22;9779;51.756;7.450;2023-05-16T09:31:25;13.20;99.90
19292;DHT22;9779;51.756;7.450;2023-05-16T09:33:54;13.20;99.90
19292;DHT22;9779;51.756;7.450;2023-05-16T09:36:20;13.30;1.00
19292;DHT22;9779;51.756;7.450;2023-05-16T09:38:46;13.30;1.00
19292;DHT22;9779;51.756;7.450;2023-05-16T09:41:12;13.40;1.00
19292;DHT22;9779;51.756;7.450;2023-05-16T09:43:39;13.40;1.00
19292;DHT22;9779;51.756;7.450;2023-05-16T09:46:05;13.40;99.90
19292;DHT22;9779;51.756;7.450;2023-05-16T09:48:33;13.70;99.90
19292;DHT22;9779;51.756;7.450;2023-05-16T09:50:59;13.50;12.60
19292;DHT22;9779;51.756;7.450;2023-05-16T09:53:31;13.40;1.00
19292;DHT22;9779;51.756;7.450;2023-05-16T09:56:10;13.20;99.90
19292;DHT22;9779;51.756;7.450;2023-05-16T09:58:38;13.00;1.00
19292;DHT22;9779;51.756;7.450;2023-05-16T10:01:05;13.00;1.00
19292;DHT22;9779;51.756;7.450;2023-05-16T10:03:36;13.10;99.90
19292;DHT22;9779;51.756;7.450;2023-05-16T10:06:03;13.30;99.90
19292;DHT22;9779;51.756;7.450;2023-05-16T10:08:31;13.30;1.00
19292;DHT22;9779;51.756;7.450;2023-05-16T10:11:00;13.50;99.90
19292;DHT22;9779;51.756;7.450;2023-05-16T10:13:29;13.60;1.00
19292;DHT22;9779;51.756;7.450;2023-05-16T10:15:56;13.50;1.00
19292;DHT22;9779;51.756;7.450;2023-05-16T10:18:24;13.60;1.00
19292;DHT22;9779;51.756;7.450;2023-05-16T10:20:53;13.80;1.00
19292;DHT22;9779;51.756;7.450;2023-05-16T10:23:19;13.80;1.00
19292;DHT22;9779;51.756;7.450;2023-05-16T10:25:48;14.10;1.00
19292;DHT22;9779;51.756;7.450;2023-05-16T10:28:15;14.30;1.00
19292;DHT22;9779;51.756;7.450;2023-05-16T10:30:42;14.30;1.00
19292;DHT22;9779;51.756;7.450;2023-05-16T10:33:17;14.30;1.00
19292;DHT22;9779;51.756;7.450;2023-05-16T10:35:44;14.10;99.90
19292;DHT22;9779;51.756;7.450;2023-05-16T10:38:12;14.00;99.90
19292;DHT22;9779;51.756;7.450;2023-05-16T10:40:39;13.80;1.00
19292;DHT22;9779;51.756;7.450;2023-05-16T10:43:06;14.20;1.00
19292;DHT22;9779;51.756;7.450;2023-05-16T10:45:33;14.40;1.00
19292;DHT22;9779;51.756;7.450;2023-05-16T10:48:01;14.60;1.00
19292;DHT22;9779;51.756;7.450;2023-05-16T10:56:07;15.00;99.90
19292;DHT22;9779;51.756;7.450;2023-05-16T11:01:15;15.90;99.90
19292;DHT22;9779;51.756;7.450;2023-05-16T11:06:22;15.50;99.90
19292;DHT22;9779;51.756;7.450;2023-05-16T11:09:20;15.20;99.90
19292;DHT22;9779;51.756;7.450;2023-05-16T11:14:23;14.70;99.90
19292;DHT22;9779;51.756;7.450;2023-05-16T11:19:39;14.20;99.90
19292;DHT22;9779;51.756;7.450;2023-05-16T11:27:27;13.70;99.90
19292;DHT22;9779;51.756;7.450;2023-05-16T11:30:14;13.60;1.00
19292;DHT22;9779;51.756;7.450;2023-05-16T11:32:45;13.60;1.00
19292;DHT22;9779;51.756;7.450;2023-05-16T11:35:13;13.70;1.00
19292;DHT22;9779;51.756;7.450;2023-05-16T11:37:39;13.90;1.00
19292;DHT22;9779;51.756;7.450;2023-05-16T11:40:07;13.80;1.00
19292;DHT22;9779;51.756;7.450;2023-05-16T11:42:35;13.70;1.00
19292;DHT22;9779;51.756;7.450;2023-05-16T11:45:05;13.90;1.00
19292;DHT22;9779;51.756;7.450;2023-05-16T11:47:31;14.40;1.00
19292;DHT22;9779;51.756;7.450;2023-05-16T11:49:57;14.80;1.00
19292;DHT22;9779;51.756;7.450;2023-05-16T11:52:23;15.20;99.90
19292;DHT22;9779;51.756;7.450;2023-05-16T11:54:48;15.50;1.00
19292;DHT22;9779;51.756;7.450;2023-05-16T11:57:15;15.70;99.90
19292;DHT22;9779;51.756;7.450;2023-05-16T11:59:41;15.90;1.00
19292;DHT22;9779;51.756;7.450;2023-05-16T12:02:07;16.30;1.00
19292;DHT22;9779;51.756;7.450;2023-05-16T12:04:34;16.40;99.90
19292;DHT22;9779;51.756;7.450;2023-05-16T12:07:00;16.50;99.90
19292;DHT22;9779;51.756;7.450;2023-05-16T12:09:26;16.60;99.90
19292;DHT22;9779;51.756;7.450;2023-05-16T12:11:52;16.20;99.90
19292;DHT22;9779;51.756;7.450;2023-05-16T12:14:18;15.90;99.90
19292;DHT22;9779;51.756;7.450;2023-05-16T12:16:44;15.60;99.90
19292;DHT22;9779;51.756;7.450;2023-05-16T12:19:10;15.80;99.90
19292;DHT22;9779;51.756;7.450;2023-05-16T12:21:37;16.30;99.90
19292;DHT22;9779;51.756;7.450;2023-05-16T12:24:03;16.10;99.90
19292;DHT22;9779;51.756;7.450;2023-05-16T12:26:30;15.80;99.90
19292;DHT22;9779;51.756;7.450;2023-05-16T12:28:59;15.40;99.90
19292;DHT22;9779;51.756;7.450;2023-05-16T12:31:28;15.40;99.90
19292;DHT22;9779;51.756;7.450;2023-05-16T12:33:55;15.90;99.90
19292;DHT22;9779;51.756;7.450;2023-05-16T12:36:21;16.30;99.90
19292;DHT22;9779;51.756;7.450;2023-05-16T12:38:47;16.50;95.10
19292;DHT22;9779;51.756;7.450;2023-05-16T12:41:20;16.80;41.10
19292;DHT22;9779;51.756;7.450;2023-05-16T12:43:50;17.10;1.00
19292;DHT22;9779;51.756;7.450;2023-05-16T12:46:15;16.80;1.00
19292;DHT22;9779;51.756;7.450;2023-05-16T12:48:43;16.80;1.00
19292;DHT22;9779;51.756;7.450;2023-05-16T12:51:18;16.50;1.00
19292;DHT22;9779;51.756;7.450;2023-05-16T12:53:48;16.50;1.00
19292;DHT22;9779;51.756;7.450;2023-05-16T12:56:14;16.50;1.00
19292;DHT22;9779;51.756;7.450;2023-05-16T12:58:41;16.80;1.00
19292;DHT22;9779;51.756;7.450;2023-05-16T13:01:07;16.80;1.00
19292;DHT22;9779;51.756;7.450;2023-05-16T13:03:33;17.10;1.00
19292;DHT22;9779;51.756;7.450;2023-05-16T13:06:00;17.20;1.00
19292;DHT22;9779;51.756;7.450;2023-05-16T13:08:29;17.20;1.00
19292;DHT22;9779;51.756;7.450;2023-05-16T13:10:54;16.90;1.00
19292;DHT22;9779;51.756;7.450;2023-05-16T13:13:21;17.00;1.00
19292;DHT22;9779;51.756;7.450;2023-05-16T13:15:47;17.10;1.00
19292;DHT22;9779;51.756;7.450;2023-05-16T13:18:13;16.90;1.00
19292;DHT22;9779;51.756;7.450;2023-05-16T13:20:39;16.80;1.00
19292;DHT22;9779;51.756;7.450;2023-05-16T13:23:04;16.50;1.00
19292;DHT22;9779;51.756;7.450;2023-05-16T13:25:31;16.20;1.00
19292;DHT22;9779;51.756;7.450;2023-05-16T13:27:57;16.60;1.00
19292;DHT22;9779;51.756;7.450;2023-05-16T13:30:23;16.90;1.00
19292;DHT22;9779;51.756;7.450;2023-05-16T13:35:17;17.70;1.00
19292;DHT22;9779;51.756;7.450;2023-05-16T13:37:43;17.60;64.80
19292;DHT22;9779;51.756;7.450;2023-05-16T13:40:08;17.20;99.90
19292;DHT22;9779;51.756;7.450;2023-05-16T13:42:35;17.00;1.00
19292;DHT22;9779;51.756;7.450;2023-05-16T13:45:02;16.90;1.00
19292;DHT22;9779;51.756;7.450;2023-05-16T13:47:27;16.80;57.70
19292;DHT22;9779;51.756;7.450;2023-05-16T13:49:53;16.60;1.00
19292;DHT22;9779;51.756;7.450;2023-05-16T13:52:19;16.70;1.00
19292;DHT22;9779;51.756;7.450;2023-05-16T13:54:45;17.10;1.00
19292;DHT22;9779;51.756;7.450;2023-05-16T13:57:11;17.60;1.00
19292;DHT22;9779;51.756;7.450;2023-05-16T13:59:36;17.80;1.00
19292;DHT22;9779;51.756;7.450;2023-05-16T14:02:02;18.30;1.00
19292;DHT22;9779;51.756;7.450;2023-05-16T14:04:27;18.50;1.00
19292;DHT22;9779;51.756;7.450;2023-05-16T14:06:53;18.10;1.00
19292;DHT22;9779;51.756;7.450;2023-05-16T14:09:19;17.70;1.00
19292;DHT22;9779;51.756;7.450;2023-05-16T14:11:45;17.40;1.00
19292;DHT22;9779;51.756;7.450;2023-05-16T14:14:10;17.20;1.00
19292;DHT22;9779;51.756;7.450;2023-05-16T14:16:36;16.90;1.00
19292;DHT22;9779;51.756;7.450;2023-05-16T14:19:01;16.80;1.00
19292;DHT22;9779;51.756;7.450;2023-05-16T14:21:27;16.50;1.00
19292;DHT22;9779;51.756;7.450;2023-05-16T14:23:52;16.40;1.00
19292;DHT22;9779;51.756;7.450;2023-05-16T14:26:19;16.50;1.00
19292;DHT22;9779;51.756;7.450;2023-05-16T14:28:49;16.20;1.00
19292;DHT22;9779;51.756;7.450;2023-05-16T14:31:15;16.00;1.00
19292;DHT22;9779;51.756;7.450;2023-05-16T14:33:41;15.90;1.00
19292;DHT22;9779;51.756;7.450;2023-05-16T14:36:08;15.80;1.00
19292;DHT22;9779;51.756;7.450;2023-05-16T14:38:33;15.70;1.00
19292;DHT22;9779;51.756;7.450;2023-05-16T14:40:59;16.00;1.00
19292;DHT22;9779;51.756;7.450;2023-05-16T14:43:25;15.90;1.00
19292;DHT22;9779;51.756;7.450;2023-05-16T14:45:51;16.00;1.00
19292;DHT22;9779;51.756;7.450;2023-05-16T14:48:16;15.80;1.00
19292;DHT22;9779;51.756;7.450;2023-05-16T14:50:42;15.80;1.00
19292;DHT22;9779;51.756;7.450;2023-05-16T14:53:08;15.90;1.00
19292;DHT22;9779;51.756;7.450;2023-05-16T14:55:33;15.80;1.00
19292;DHT22;9779;51.756;7.450;2023-05-16T14:57:59;15.60;1.00
19292;DHT22;9779;51.756;7.450;2023-05-16T15:00:25;15.50;1.00
19292;DHT22;9779;51.756;7.450;2023-05-16T15:02:51;15.60;1.00
19292;DHT22;9779;51.756;7.450;2023-05-16T15:05:17;15.60;1.00
19292;DHT22;9779;51.756;7.450;2023-05-16T15:07:42;15.80;1.00
19292;DHT22;9779;51.756;7.450;2023-05-16T15:10:09;16.20;1.00
19292;DHT22;9779;51.756;7.450;2023-05-16T15:12:35;16.50;1.00
19292;DHT22;9779;51.756;7.450;2023-05-16T15:15:00;16.20;1.00
19292;DHT22;9779;51.756;7.450;2023-05-16T15:17:26;15.90;1.00
19292;DHT22;9779;51.756;7.450;2023-05-16T15:19:51;15.70;1.00
19292;DHT22;9779;51.756;7.450;2023-05-16T15:22:21;15.60;1.00
19292;DHT22;9779;51.756;7.450;2023-05-16T15:24:46;15.40;1.00
19292;DHT22;9779;51.756;7.450;2023-05-16T15:27:12;14.90;99.90
19292;DHT22;9779;51.756;7.450;2023-05-16T15:29:37;14.80;1.00
19292;DHT22;9779;51.756;7.450;2023-05-16T15:32:03;14.60;1.00
19292;DHT22;9779;51.756;7.450;2023-05-16T15:34:33;14.70;99.90
19292;DHT22;9779;51.756;7.450;2023-05-16T15:36:59;14.50;1.00
19292;DHT22;9779;51.756;7.450;2023-05-16T15:39:25;14.50;1.00
19292;DHT22;9779;51.756;7.450;2023-05-16T15:41:52;14.60;1.00
19292;DHT22;9779;51.756;7.450;2023-05-16T15:44:17;14.80;1.00
19292;DHT22;9779;51.756;7.450;2023-05-16T15:46:43;15.00;1.00
19292;DHT22;9779;51.756;7.450;2023-05-16T15:49:08;15.20;99.90
19292;DHT22;9779;51.756;7.450;2023-05-16T15:51:34;15.10;99.90
19292;DHT22;9779;51.756;7.450;2023-05-16T15:54:01;15.10;99.90
19292;DHT22;9779;51.756;7.450;2023-05-16T15:56:26;15.00;99.90
19292;DHT22;9779;51.756;7.450;2023-05-16T15:58:54;15.00;1.00
19292;DHT22;9779;51.756;7.450;2023-05-16T16:01:20;15.10;1.00
19292;DHT22;9779;51.756;7.450;2023-05-16T16:03:45;14.80;99.90
19292;DHT22;9779;51.756;7.450;2023-05-16T16:06:11;14.60;1.00
19292;DHT22;9779;51.756;7.450;2023-05-16T16:08:36;14.50;1.00
19292;DHT22;9779;51.756;7.450;2023-05-16T16:11:02;14.60;1.00
19292;DHT22;9779;51.756;7.450;2023-05-16T16:13:29;14.50;1.00
19292;DHT22;9779;51.756;7.450;2023-05-16T16:15:55;14.50;1.00
19292;DHT22;9779;51.756;7.450;2023-05-16T16:18:20;14.40;1.00
19292;DHT22;9779;51.756;7.450;2023-05-16T16:20:46;14.40;99.90
19292;DHT22;9779;51.756;7.450;2023-05-16T16:23:12;14.30;65.40
19292;DHT22;9779;51.756;7.450;2023-05-16T16:25:37;14.30;99.90